Anglian Lady — VOLP — position and weather

sailwx.info

Track history (hours):
 
Tides and Currents Weather Stations Pressure Air Temp Water Temp Dewpoint Dewpoint Depression Visibility Wind Speed Wind Dir Waves Ship Positions

Anglian Lady

Last reported at 2018-Apr-25 10:12 UTC. Time now 2018-May-20 11:51 UTC.
Position N 45°51' W 084°26'.
Warning: this ship's position is 25 days out of date.

Length 32 m.

Type: Tug. MMSI: 316002238.

Date/timePositionNaut miles runAvg speedWind from/ knotsBaromVisibWave heightAir tempDewpointWater temp
2018-Apr-25 10:12N 45°51' W 084°26'2 7.7
2018-Apr-25 09:58N 45°51' W 084°29'4 7.7
2018-Apr-25 09:30N 45°51' W 084°34'4 7.5
2018-Apr-25 08:57N 45°50' W 084°40'3 7.6
2018-Apr-25 08:30N 45°49' W 084°44'4 7.7
2018-Apr-25 08:00N 45°49' W 084°50'4 7.2
2018-Apr-25 07:30N 45°49' W 084°55'4 7.6
2018-Apr-25 07:01N 45°50' W 085°00'4 7.5
2018-Apr-25 06:30N 45°50' W 085°06'3 5.9
2018-Apr-25 06:00N 45°48' W 085°08'3 7.1
2018-Apr-25 05:30N 45°44' W 085°10'4 7.5
2018-Apr-25 05:00N 45°41' W 085°13'4 7.4
2018-Apr-25 04:31N 45°39' W 085°17'4 7.4
2018-Apr-25 04:01N 45°36' W 085°20'4 7.4
2018-Apr-25 03:31N 45°33' W 085°23'4 7.4
2018-Apr-25 02:59N 45°29' W 085°26'4 7.4
2018-Apr-25 02:29N 45°26' W 085°29'4 7.4
2018-Apr-25 01:59N 45°23' W 085°32'4 7.3
2018-Apr-25 01:29N 45°20' W 085°36'3 7.3
2018-Apr-25 01:00N 45°18' W 085°38'4 7.2
2018-Apr-25 00:29N 45°15' W 085°42'  
2018-Apr-19 14:39N 45°53' W 085°10'1 6.0
2018-Apr-19 14:29N 45°53' W 085°08'3 6.1
2018-Apr-19 13:57N 45°52' W 085°04'3 6.0
2018-Apr-19 13:28N 45°51' W 084°60'3 5.9
2018-Apr-19 13:00N 45°51' W 084°56'3 5.9
2018-Apr-19 12:30N 45°50' W 084°52'3 4.8
2018-Apr-19 11:53N 45°49' W 084°48'1 2.1
2018-Apr-19 11:22N 45°49' W 084°46'1 2.4
2018-Apr-19 11:00N 45°49' W 084°45'  
Track history (hours):
 
Tides and Currents Weather Stations Pressure Air Temp Water Temp Dewpoint Dewpoint Depression Visibility Wind Speed Wind Dir Waves Ship Positions

Anglian Lady

Last reported at 2018-Apr-25 10:12 UTC. Time now 2018-May-20 11:51 UTC.
Position N 45°51' W 084°26'.
Warning: this ship's position is 25 days out of date.

Length 32 m.

Type: Tug. MMSI: 316002238.

Date/timePositionNaut miles runAvg speedWind from/ knotsBaromVisibWave heightAir tempDewpointWater temp
2018-Apr-25 10:12N 45°51' W 084°26'2 7.7
2018-Apr-25 09:58N 45°51' W 084°29'4 7.7
2018-Apr-25 09:30N 45°51' W 084°34'4 7.5
2018-Apr-25 08:57N 45°50' W 084°40'3 7.6
2018-Apr-25 08:30N 45°49' W 084°44'4 7.7
2018-Apr-25 08:00N 45°49' W 084°50'4 7.2
2018-Apr-25 07:30N 45°49' W 084°55'4 7.6
2018-Apr-25 07:01N 45°50' W 085°00'4 7.5
2018-Apr-25 06:30N 45°50' W 085°06'3 5.9
2018-Apr-25 06:00N 45°48' W 085°08'3 7.1
2018-Apr-25 05:30N 45°44' W 085°10'4 7.5
2018-Apr-25 05:00N 45°41' W 085°13'4 7.4
2018-Apr-25 04:31N 45°39' W 085°17'4 7.4
2018-Apr-25 04:01N 45°36' W 085°20'4 7.4
2018-Apr-25 03:31N 45°33' W 085°23'4 7.4
2018-Apr-25 02:59N 45°29' W 085°26'4 7.4
2018-Apr-25 02:29N 45°26' W 085°29'4 7.4
2018-Apr-25 01:59N 45°23' W 085°32'4 7.3
2018-Apr-25 01:29N 45°20' W 085°36'3 7.3
2018-Apr-25 01:00N 45°18' W 085°38'4 7.2
2018-Apr-25 00:29N 45°15' W 085°42'  
2018-Apr-19 14:39N 45°53' W 085°10'1 6.0
2018-Apr-19 14:29N 45°53' W 085°08'3 6.1
2018-Apr-19 13:57N 45°52' W 085°04'3 6.0
2018-Apr-19 13:28N 45°51' W 084°60'3 5.9
2018-Apr-19 13:00N 45°51' W 084°56'3 5.9
2018-Apr-19 12:30N 45°50' W 084°52'3 4.8
2018-Apr-19 11:53N 45°49' W 084°48'1 2.1
2018-Apr-19 11:22N 45°49' W 084°46'1 2.4
2018-Apr-19 11:00N 45°49' W 084°45'  

Dump ship's entire track history